sensor_id;sensor_type;location;lat;lon;timestamp;P1;durP1;ratioP1;P2;durP2;ratioP2
20073;SDS011;10197;54.282;10.078;2023-10-09T00:01:50;2.38;;;2.17;;
20073;SDS011;10197;54.282;10.078;2023-10-09T00:04:17;2.90;;;2.10;;
20073;SDS011;10197;54.282;10.078;2023-10-09T00:06:45;4.50;;;1.70;;
20073;SDS011;10197;54.282;10.078;2023-10-09T00:09:13;2.88;;;1.88;;
20073;SDS011;10197;54.282;10.078;2023-10-09T00:11:52;2.95;;;1.80;;
20073;SDS011;10197;54.282;10.078;2023-10-09T00:14:22;2.67;;;2.00;;
20073;SDS011;10197;54.282;10.078;2023-10-09T00:16:50;3.53;;;2.10;;
20073;SDS011;10197;54.282;10.078;2023-10-09T00:19:21;4.22;;;1.77;;
20073;SDS011;10197;54.282;10.078;2023-10-09T00:21:55;2.05;;;1.80;;
20073;SDS011;10197;54.282;10.078;2023-10-09T00:24:24;2.70;;;1.90;;
20073;SDS011;10197;54.282;10.078;2023-10-09T00:26:52;2.92;;;2.20;;
20073;SDS011;10197;54.282;10.078;2023-10-09T00:29:27;2.25;;;2.05;;
20073;SDS011;10197;54.282;10.078;2023-10-09T00:32:00;4.60;;;1.80;;
20073;SDS011;10197;54.282;10.078;2023-10-09T00:34:38;2.50;;;2.03;;
20073;SDS011;10197;54.282;10.078;2023-10-09T00:37:06;3.78;;;2.13;;
20073;SDS011;10197;54.282;10.078;2023-10-09T00:39:36;2.05;;;1.88;;
20073;SDS011;10197;54.282;10.078;2023-10-09T00:42:10;2.92;;;2.00;;
20073;SDS011;10197;54.282;10.078;2023-10-09T00:44:54;2.35;;;2.15;;
20073;SDS011;10197;54.282;10.078;2023-10-09T00:47:21;2.03;;;1.80;;
20073;SDS011;10197;54.282;10.078;2023-10-09T00:49:52;1.80;;;1.70;;
20073;SDS011;10197;54.282;10.078;2023-10-09T00:52:24;2.17;;;2.00;;
20073;SDS011;10197;54.282;10.078;2023-10-09T00:55:05;3.17;;;2.00;;
20073;SDS011;10197;54.282;10.078;2023-10-09T00:57:41;2.85;;;2.15;;
20073;SDS011;10197;54.282;10.078;2023-10-09T01:00:13;3.58;;;1.98;;
20073;SDS011;10197;54.282;10.078;2023-10-09T01:02:57;2.17;;;1.98;;
20073;SDS011;10197;54.282;10.078;2023-10-09T01:05:38;2.40;;;1.80;;
20073;SDS011;10197;54.282;10.078;2023-10-09T01:08:11;2.33;;;1.90;;
20073;SDS011;10197;54.282;10.078;2023-10-09T01:10:48;2.53;;;2.33;;
20073;SDS011;10197;54.282;10.078;2023-10-09T01:13:23;2.85;;;2.05;;
20073;SDS011;10197;54.282;10.078;2023-10-09T01:16:05;2.25;;;2.05;;
20073;SDS011;10197;54.282;10.078;2023-10-09T01:18:32;2.17;;;1.98;;
20073;SDS011;10197;54.282;10.078;2023-10-09T01:21:03;3.67;;;2.13;;
20073;SDS011;10197;54.282;10.078;2023-10-09T01:23:32;2.42;;;1.80;;
20073;SDS011;10197;54.282;10.078;2023-10-09T01:25:59;3.03;;;1.80;;
20073;SDS011;10197;54.282;10.078;2023-10-09T01:28:25;2.00;;;1.90;;
20073;SDS011;10197;54.282;10.078;2023-10-09T01:30:54;2.45;;;1.85;;
20073;SDS011;10197;54.282;10.078;2023-10-09T01:33:21;10.35;;;3.20;;
20073;SDS011;10197;54.282;10.078;2023-10-09T01:35:49;1.98;;;1.80;;
20073;SDS011;10197;54.282;10.078;2023-10-09T01:38:21;2.38;;;1.77;;
20073;SDS011;10197;54.282;10.078;2023-10-09T01:40:58;2.88;;;1.73;;
20073;SDS011;10197;54.282;10.078;2023-10-09T01:43:32;2.13;;;1.60;;
20073;SDS011;10197;54.282;10.078;2023-10-09T01:46:00;5.13;;;2.20;;
20073;SDS011;10197;54.282;10.078;2023-10-09T01:48:29;2.05;;;1.85;;
20073;SDS011;10197;54.282;10.078;2023-10-09T01:51:01;2.83;;;2.20;;
20073;SDS011;10197;54.282;10.078;2023-10-09T01:53:31;2.20;;;1.92;;
20073;SDS011;10197;54.282;10.078;2023-10-09T01:56:09;2.28;;;1.85;;
20073;SDS011;10197;54.282;10.078;2023-10-09T01:58:41;2.45;;;1.80;;
20073;SDS011;10197;54.282;10.078;2023-10-09T02:01:11;2.22;;;1.85;;
20073;SDS011;10197;54.282;10.078;2023-10-09T02:03:39;3.42;;;2.08;;
20073;SDS011;10197;54.282;10.078;2023-10-09T02:06:07;2.00;;;1.65;;
20073;SDS011;10197;54.282;10.078;2023-10-09T02:08:51;3.15;;;2.00;;
20073;SDS011;10197;54.282;10.078;2023-10-09T02:11:21;2.03;;;1.83;;
20073;SDS011;10197;54.282;10.078;2023-10-09T02:14:02;2.67;;;1.70;;
20073;SDS011;10197;54.282;10.078;2023-10-09T02:16:41;2.20;;;2.00;;
20073;SDS011;10197;54.282;10.078;2023-10-09T02:19:08;3.15;;;2.08;;
20073;SDS011;10197;54.282;10.078;2023-10-09T02:21:54;2.65;;;1.90;;
20073;SDS011;10197;54.282;10.078;2023-10-09T02:24:22;2.20;;;1.80;;
20073;SDS011;10197;54.282;10.078;2023-10-09T02:27:10;2.53;;;1.83;;
20073;SDS011;10197;54.282;10.078;2023-10-09T02:29:38;2.30;;;1.80;;
20073;SDS011;10197;54.282;10.078;2023-10-09T02:32:07;2.20;;;1.90;;
20073;SDS011;10197;54.282;10.078;2023-10-09T02:34:42;2.22;;;1.90;;
20073;SDS011;10197;54.282;10.078;2023-10-09T02:37:11;2.08;;;1.88;;
20073;SDS011;10197;54.282;10.078;2023-10-09T02:39:39;2.50;;;2.17;;
20073;SDS011;10197;54.282;10.078;2023-10-09T02:42:14;2.85;;;2.15;;
20073;SDS011;10197;54.282;10.078;2023-10-09T02:44:49;2.33;;;2.13;;
20073;SDS011;10197;54.282;10.078;2023-10-09T02:47:17;2.13;;;1.88;;
20073;SDS011;10197;54.282;10.078;2023-10-09T02:49:46;2.30;;;2.00;;
20073;SDS011;10197;54.282;10.078;2023-10-09T02:52:15;2.45;;;1.90;;
20073;SDS011;10197;54.282;10.078;2023-10-09T02:54:45;2.38;;;1.92;;
20073;SDS011;10197;54.282;10.078;2023-10-09T02:57:15;4.03;;;2.05;;
20073;SDS011;10197;54.282;10.078;2023-10-09T02:59:47;2.30;;;2.10;;
20073;SDS011;10197;54.282;10.078;2023-10-09T03:02:17;2.13;;;1.92;;
20073;SDS011;10197;54.282;10.078;2023-10-09T03:04:44;2.63;;;2.38;;
20073;SDS011;10197;54.282;10.078;2023-10-09T03:07:11;2.42;;;2.00;;
20073;SDS011;10197;54.282;10.078;2023-10-09T03:09:39;2.30;;;2.03;;
20073;SDS011;10197;54.282;10.078;2023-10-09T03:12:08;5.07;;;2.00;;
20073;SDS011;10197;54.282;10.078;2023-10-09T03:14:39;2.60;;;2.13;;
20073;SDS011;10197;54.282;10.078;2023-10-09T03:17:07;3.90;;;2.08;;
20073;SDS011;10197;54.282;10.078;2023-10-09T03:19:36;2.25;;;2.05;;
20073;SDS011;10197;54.282;10.078;2023-10-09T03:22:04;2.33;;;1.90;;
20073;SDS011;10197;54.282;10.078;2023-10-09T03:24:34;2.30;;;2.10;;
20073;SDS011;10197;54.282;10.078;2023-10-09T03:27:01;2.30;;;2.10;;
20073;SDS011;10197;54.282;10.078;2023-10-09T03:29:28;4.78;;;2.30;;
20073;SDS011;10197;54.282;10.078;2023-10-09T03:31:57;2.30;;;2.10;;
20073;SDS011;10197;54.282;10.078;2023-10-09T03:34:25;2.60;;;2.30;;
20073;SDS011;10197;54.282;10.078;2023-10-09T03:36:53;2.45;;;2.20;;
20073;SDS011;10197;54.282;10.078;2023-10-09T03:39:29;4.30;;;2.20;;
20073;SDS011;10197;54.282;10.078;2023-10-09T03:42:06;4.18;;;2.20;;
20073;SDS011;10197;54.282;10.078;2023-10-09T03:44:40;2.97;;;2.30;;
20073;SDS011;10197;54.282;10.078;2023-10-09T03:47:14;2.30;;;2.10;;
20073;SDS011;10197;54.282;10.078;2023-10-09T03:49:42;2.60;;;2.33;;
20073;SDS011;10197;54.282;10.078;2023-10-09T03:52:09;3.22;;;2.13;;
20073;SDS011;10197;54.282;10.078;2023-10-09T03:54:42;3.50;;;2.42;;
20073;SDS011;10197;54.282;10.078;2023-10-09T03:57:11;2.40;;;2.13;;
20073;SDS011;10197;54.282;10.078;2023-10-09T03:59:39;4.45;;;2.35;;
20073;SDS011;10197;54.282;10.078;2023-10-09T04:02:08;3.35;;;2.33;;
20073;SDS011;10197;54.282;10.078;2023-10-09T04:04:39;2.88;;;2.35;;
20073;SDS011;10197;54.282;10.078;2023-10-09T04:07:11;2.53;;;2.28;;
20073;SDS011;10197;54.282;10.078;2023-10-09T04:09:38;3.80;;;2.35;;
20073;SDS011;10197;54.282;10.078;2023-10-09T04:12:10;4.60;;;2.53;;
20073;SDS011;10197;54.282;10.078;2023-10-09T04:14:46;4.03;;;2.60;;
20073;SDS011;10197;54.282;10.078;2023-10-09T04:17:20;3.25;;;2.80;;
20073;SDS011;10197;54.282;10.078;2023-10-09T04:20:11;4.25;;;2.80;;
20073;SDS011;10197;54.282;10.078;2023-10-09T04:22:55;2.78;;;2.53;;
20073;SDS011;10197;54.282;10.078;2023-10-09T04:25:30;3.80;;;2.80;;
20073;SDS011;10197;54.282;10.078;2023-10-09T04:28:07;3.15;;;2.83;;
20073;SDS011;10197;54.282;10.078;2023-10-09T04:30:35;4.22;;;3.10;;
20073;SDS011;10197;54.282;10.078;2023-10-09T04:33:05;4.05;;;2.95;;
20073;SDS011;10197;54.282;10.078;2023-10-09T04:35:55;3.40;;;2.80;;
20073;SDS011;10197;54.282;10.078;2023-10-09T04:38:41;3.50;;;3.20;;
20073;SDS011;10197;54.282;10.078;2023-10-09T04:41:21;5.22;;;3.03;;
20073;SDS011;10197;54.282;10.078;2023-10-09T04:43:57;3.53;;;3.15;;
20073;SDS011;10197;54.282;10.078;2023-10-09T04:46:44;5.80;;;2.85;;
20073;SDS011;10197;54.282;10.078;2023-10-09T04:49:30;5.60;;;3.17;;
20073;SDS011;10197;54.282;10.078;2023-10-09T04:52:12;3.50;;;3.20;;
20073;SDS011;10197;54.282;10.078;2023-10-09T04:54:45;5.38;;;3.85;;
20073;SDS011;10197;54.282;10.078;2023-10-09T04:57:25;5.88;;;3.22;;
20073;SDS011;10197;54.282;10.078;2023-10-09T04:59:52;3.75;;;3.17;;
20073;SDS011;10197;54.282;10.078;2023-10-09T05:02:23;3.88;;;3.00;;
20073;SDS011;10197;54.282;10.078;2023-10-09T05:05:01;4.30;;;3.08;;
20073;SDS011;10197;54.282;10.078;2023-10-09T05:07:44;3.90;;;3.50;;
20073;SDS011;10197;54.282;10.078;2023-10-09T05:10:21;4.05;;;3.17;;
20073;SDS011;10197;54.282;10.078;2023-10-09T05:12:50;3.65;;;3.28;;
20073;SDS011;10197;54.282;10.078;2023-10-09T05:15:22;3.92;;;2.85;;
20073;SDS011;10197;54.282;10.078;2023-10-09T05:17:52;5.30;;;3.80;;
20073;SDS011;10197;54.282;10.078;2023-10-09T05:20:21;8.57;;;3.95;;
20073;SDS011;10197;54.282;10.078;2023-10-09T05:23:08;5.00;;;3.70;;
20073;SDS011;10197;54.282;10.078;2023-10-09T05:26:04;4.93;;;3.20;;
20073;SDS011;10197;54.282;10.078;2023-10-09T05:28:51;3.92;;;3.10;;
20073;SDS011;10197;54.282;10.078;2023-10-09T05:31:17;4.30;;;3.20;;
20073;SDS011;10197;54.282;10.078;2023-10-09T05:33:58;3.10;;;2.80;;
20073;SDS011;10197;54.282;10.078;2023-10-09T05:36:26;4.25;;;3.13;;
20073;SDS011;10197;54.282;10.078;2023-10-09T05:39:00;3.72;;;3.00;;
20073;SDS011;10197;54.282;10.078;2023-10-09T05:41:43;5.63;;;3.28;;
20073;SDS011;10197;54.282;10.078;2023-10-09T05:44:18;4.22;;;3.17;;
20073;SDS011;10197;54.282;10.078;2023-10-09T05:47:03;4.60;;;3.10;;
20073;SDS011;10197;54.282;10.078;2023-10-09T05:49:48;3.63;;;2.95;;
20073;SDS011;10197;54.282;10.078;2023-10-09T05:52:44;3.58;;;2.92;;
20073;SDS011;10197;54.282;10.078;2023-10-09T05:55:29;3.28;;;2.90;;
20073;SDS011;10197;54.282;10.078;2023-10-09T05:58:15;2.80;;;2.47;;
20073;SDS011;10197;54.282;10.078;2023-10-09T06:00:59;2.88;;;2.55;;
20073;SDS011;10197;54.282;10.078;2023-10-09T06:03:44;3.70;;;2.60;;
20073;SDS011;10197;54.282;10.078;2023-10-09T06:06:37;2.80;;;2.50;;
20073;SDS011;10197;54.282;10.078;2023-10-09T06:09:10;3.28;;;2.28;;
20073;SDS011;10197;54.282;10.078;2023-10-09T06:11:51;2.78;;;2.40;;
20073;SDS011;10197;54.282;10.078;2023-10-09T06:14:42;3.83;;;2.58;;
20073;SDS011;10197;54.282;10.078;2023-10-09T06:17:23;6.28;;;2.35;;
20073;SDS011;10197;54.282;10.078;2023-10-09T06:19:49;3.90;;;2.30;;
20073;SDS011;10197;54.282;10.078;2023-10-09T06:22:23;4.70;;;2.17;;
20073;SDS011;10197;54.282;10.078;2023-10-09T06:25:19;3.85;;;2.60;;
20073;SDS011;10197;54.282;10.078;2023-10-09T06:27:52;3.40;;;2.58;;
20073;SDS011;10197;54.282;10.078;2023-10-09T06:30:25;4.18;;;2.83;;
20073;SDS011;10197;54.282;10.078;2023-10-09T06:32:54;3.03;;;2.65;;
20073;SDS011;10197;54.282;10.078;2023-10-09T06:35:45;4.43;;;2.70;;
20073;SDS011;10197;54.282;10.078;2023-10-09T06:38:19;3.40;;;2.35;;
20073;SDS011;10197;54.282;10.078;2023-10-09T06:40:48;5.80;;;2.83;;
20073;SDS011;10197;54.282;10.078;2023-10-09T06:43:33;4.28;;;2.40;;
20073;SDS011;10197;54.282;10.078;2023-10-09T06:46:14;4.60;;;3.05;;
20073;SDS011;10197;54.282;10.078;2023-10-09T06:48:59;4.15;;;2.60;;
20073;SDS011;10197;54.282;10.078;2023-10-09T06:51:40;5.43;;;2.60;;
20073;SDS011;10197;54.282;10.078;2023-10-09T06:54:06;4.72;;;2.60;;
20073;SDS011;10197;54.282;10.078;2023-10-09T06:56:35;2.90;;;2.60;;
20073;SDS011;10197;54.282;10.078;2023-10-09T06:59:19;8.38;;;5.35;;
20073;SDS011;10197;54.282;10.078;2023-10-09T07:01:50;6.47;;;3.83;;
20073;SDS011;10197;54.282;10.078;2023-10-09T07:04:34;4.90;;;2.83;;
20073;SDS011;10197;54.282;10.078;2023-10-09T07:07:13;5.53;;;2.75;;
20073;SDS011;10197;54.282;10.078;2023-10-09T07:09:41;3.67;;;2.78;;
20073;SDS011;10197;54.282;10.078;2023-10-09T07:12:28;10.50;;;2.70;;
20073;SDS011;10197;54.282;10.078;2023-10-09T07:14:58;10.43;;;4.47;;
20073;SDS011;10197;54.282;10.078;2023-10-09T07:17:51;5.68;;;4.03;;
20073;SDS011;10197;54.282;10.078;2023-10-09T07:20:17;5.97;;;3.45;;
20073;SDS011;10197;54.282;10.078;2023-10-09T07:22:58;6.22;;;2.67;;
20073;SDS011;10197;54.282;10.078;2023-10-09T07:25:39;5.57;;;2.75;;
20073;SDS011;10197;54.282;10.078;2023-10-09T07:28:21;5.25;;;2.92;;
20073;SDS011;10197;54.282;10.078;2023-10-09T07:31:08;5.95;;;3.55;;
20073;SDS011;10197;54.282;10.078;2023-10-09T07:33:51;5.22;;;3.22;;
20073;SDS011;10197;54.282;10.078;2023-10-09T07:36:22;3.65;;;2.92;;
20073;SDS011;10197;54.282;10.078;2023-10-09T07:39:03;3.42;;;2.70;;
20073;SDS011;10197;54.282;10.078;2023-10-09T07:41:39;3.47;;;2.20;;
20073;SDS011;10197;54.282;10.078;2023-10-09T07:44:10;4.57;;;2.50;;
20073;SDS011;10197;54.282;10.078;2023-10-09T07:46:59;4.88;;;2.88;;
20073;SDS011;10197;54.282;10.078;2023-10-09T07:50:15;3.13;;;2.40;;
20073;SDS011;10197;54.282;10.078;2023-10-09T07:52:46;4.75;;;2.70;;
20073;SDS011;10197;54.282;10.078;2023-10-09T07:55:15;3.65;;;2.67;;
20073;SDS011;10197;54.282;10.078;2023-10-09T07:57:51;5.03;;;2.60;;
20073;SDS011;10197;54.282;10.078;2023-10-09T08:00:18;4.50;;;2.85;;
20073;SDS011;10197;54.282;10.078;2023-10-09T08:03:23;3.55;;;2.22;;
20073;SDS011;10197;54.282;10.078;2023-10-09T08:05:51;5.82;;;3.72;;
20073;SDS011;10197;54.282;10.078;2023-10-09T08:08:32;4.53;;;3.15;;
20073;SDS011;10197;54.282;10.078;2023-10-09T08:11:26;3.90;;;2.30;;
20073;SDS011;10197;54.282;10.078;2023-10-09T08:14:25;5.85;;;2.45;;
20073;SDS011;10197;54.282;10.078;2023-10-09T08:17:08;4.07;;;2.40;;
20073;SDS011;10197;54.282;10.078;2023-10-09T08:19:42;4.15;;;2.47;;
20073;SDS011;10197;54.282;10.078;2023-10-09T08:22:23;3.15;;;2.42;;
20073;SDS011;10197;54.282;10.078;2023-10-09T08:25:08;3.90;;;2.63;;
20073;SDS011;10197;54.282;10.078;2023-10-09T08:27:51;4.47;;;2.58;;
20073;SDS011;10197;54.282;10.078;2023-10-09T08:30:22;3.47;;;2.42;;
20073;SDS011;10197;54.282;10.078;2023-10-09T08:33:06;6.82;;;2.72;;
20073;SDS011;10197;54.282;10.078;2023-10-09T08:35:51;4.65;;;3.00;;
20073;SDS011;10197;54.282;10.078;2023-10-09T08:38:22;3.45;;;2.72;;
20073;SDS011;10197;54.282;10.078;2023-10-09T08:40:49;6.93;;;3.30;;
20073;SDS011;10197;54.282;10.078;2023-10-09T08:43:20;11.15;;;3.65;;
20073;SDS011;10197;54.282;10.078;2023-10-09T08:45:48;8.80;;;3.28;;
20073;SDS011;10197;54.282;10.078;2023-10-09T08:48:17;3.63;;;3.00;;
20073;SDS011;10197;54.282;10.078;2023-10-09T08:50:44;3.67;;;2.60;;
20073;SDS011;10197;54.282;10.078;2023-10-09T08:53:15;4.40;;;2.50;;
20073;SDS011;10197;54.282;10.078;2023-10-09T08:55:44;6.30;;;2.60;;
20073;SDS011;10197;54.282;10.078;2023-10-09T08:58:11;5.93;;;3.28;;
20073;SDS011;10197;54.282;10.078;2023-10-09T09:00:41;5.18;;;3.33;;
20073;SDS011;10197;54.282;10.078;2023-10-09T09:03:11;5.25;;;2.85;;
20073;SDS011;10197;54.282;10.078;2023-10-09T09:05:39;4.35;;;2.55;;
20073;SDS011;10197;54.282;10.078;2023-10-09T09:08:09;3.95;;;2.80;;
20073;SDS011;10197;54.282;10.078;2023-10-09T09:10:52;4.13;;;3.13;;
20073;SDS011;10197;54.282;10.078;2023-10-09T09:13:25;3.78;;;2.50;;
20073;SDS011;10197;54.282;10.078;2023-10-09T09:15:57;4.28;;;2.85;;
20073;SDS011;10197;54.282;10.078;2023-10-09T09:18:24;5.40;;;3.50;;
20073;SDS011;10197;54.282;10.078;2023-10-09T09:20:57;5.22;;;3.35;;
20073;SDS011;10197;54.282;10.078;2023-10-09T09:23:24;3.83;;;3.20;;
20073;SDS011;10197;54.282;10.078;2023-10-09T09:25:53;3.60;;;2.80;;
20073;SDS011;10197;54.282;10.078;2023-10-09T09:28:26;4.32;;;3.13;;
20073;SDS011;10197;54.282;10.078;2023-10-09T09:31:06;3.20;;;2.67;;
20073;SDS011;10197;54.282;10.078;2023-10-09T09:33:38;3.25;;;2.53;;
20073;SDS011;10197;54.282;10.078;2023-10-09T09:36:06;4.50;;;2.80;;
20073;SDS011;10197;54.282;10.078;2023-10-09T09:38:36;3.35;;;2.78;;
20073;SDS011;10197;54.282;10.078;2023-10-09T09:41:14;4.20;;;2.63;;
20073;SDS011;10197;54.282;10.078;2023-10-09T09:43:50;3.58;;;2.30;;
20073;SDS011;10197;54.282;10.078;2023-10-09T09:46:18;5.45;;;2.67;;
20073;SDS011;10197;54.282;10.078;2023-10-09T09:48:45;4.47;;;3.00;;
20073;SDS011;10197;54.282;10.078;2023-10-09T09:51:13;3.28;;;2.72;;
20073;SDS011;10197;54.282;10.078;2023-10-09T09:53:42;3.47;;;2.65;;
20073;SDS011;10197;54.282;10.078;2023-10-09T09:56:14;4.13;;;2.80;;
20073;SDS011;10197;54.282;10.078;2023-10-09T09:58:43;3.00;;;2.67;;
20073;SDS011;10197;54.282;10.078;2023-10-09T10:01:12;3.25;;;2.55;;
20073;SDS011;10197;54.282;10.078;2023-10-09T10:03:51;5.55;;;3.65;;
20073;SDS011;10197;54.282;10.078;2023-10-09T10:06:22;4.65;;;3.28;;
20073;SDS011;10197;54.282;10.078;2023-10-09T10:08:51;5.40;;;3.00;;
20073;SDS011;10197;54.282;10.078;2023-10-09T10:14:10;3.20;;;2.55;;
20073;SDS011;10197;54.282;10.078;2023-10-09T10:17:05;2.90;;;2.70;;
20073;SDS011;10197;54.282;10.078;2023-10-09T10:20:04;4.03;;;2.53;;
20073;SDS011;10197;54.282;10.078;2023-10-09T10:22:51;3.63;;;2.50;;
20073;SDS011;10197;54.282;10.078;2023-10-09T10:25:43;2.95;;;2.45;;
20073;SDS011;10197;54.282;10.078;2023-10-09T10:28:19;2.88;;;2.60;;
20073;SDS011;10197;54.282;10.078;2023-10-09T10:31:01;2.83;;;2.42;;
20073;SDS011;10197;54.282;10.078;2023-10-09T10:36:32;3.30;;;2.50;;
20073;SDS011;10197;54.282;10.078;2023-10-09T10:39:00;2.90;;;2.35;;
20073;SDS011;10197;54.282;10.078;2023-10-09T10:41:30;3.10;;;2.25;;
20073;SDS011;10197;54.282;10.078;2023-10-09T10:44:03;2.58;;;2.03;;
20073;SDS011;10197;54.282;10.078;2023-10-09T10:46:58;2.58;;;2.30;;
20073;SDS011;10197;54.282;10.078;2023-10-09T10:49:26;2.88;;;2.35;;
20073;SDS011;10197;54.282;10.078;2023-10-09T10:52:01;5.78;;;2.20;;
20073;SDS011;10197;54.282;10.078;2023-10-09T10:54:40;2.47;;;2.20;;
20073;SDS011;10197;54.282;10.078;2023-10-09T10:57:16;2.30;;;2.10;;
20073;SDS011;10197;54.282;10.078;2023-10-09T10:59:55;2.17;;;1.98;;
20073;SDS011;10197;54.282;10.078;2023-10-09T11:02:31;2.10;;;1.92;;
20073;SDS011;10197;54.282;10.078;2023-10-09T11:05:04;2.65;;;1.95;;
20073;SDS011;10197;54.282;10.078;2023-10-09T11:07:49;2.17;;;2.00;;
20073;SDS011;10197;54.282;10.078;2023-10-09T11:10:22;2.50;;;2.10;;
20073;SDS011;10197;54.282;10.078;2023-10-09T11:12:53;2.50;;;2.13;;
20073;SDS011;10197;54.282;10.078;2023-10-09T11:15:36;2.60;;;2.33;;
20073;SDS011;10197;54.282;10.078;2023-10-09T11:18:20;2.25;;;2.05;;
20073;SDS011;10197;54.282;10.078;2023-10-09T11:20:52;2.88;;;2.30;;
20073;SDS011;10197;54.282;10.078;2023-10-09T11:23:39;2.50;;;2.30;;
20073;SDS011;10197;54.282;10.078;2023-10-09T11:26:18;2.35;;;2.15;;
20073;SDS011;10197;54.282;10.078;2023-10-09T11:29:05;2.72;;;2.45;;
20073;SDS011;10197;54.282;10.078;2023-10-09T11:31:40;2.47;;;2.28;;
20073;SDS011;10197;54.282;10.078;2023-10-09T11:34:17;2.00;;;1.90;;
20073;SDS011;10197;54.282;10.078;2023-10-09T11:36:55;2.20;;;2.00;;
20073;SDS011;10197;54.282;10.078;2023-10-09T11:39:23;2.90;;;2.13;;
20073;SDS011;10197;54.282;10.078;2023-10-09T11:42:01;2.42;;;2.25;;
20073;SDS011;10197;54.282;10.078;2023-10-09T11:44:36;1.98;;;1.88;;
20073;SDS011;10197;54.282;10.078;2023-10-09T11:47:06;2.15;;;2.00;;
20073;SDS011;10197;54.282;10.078;2023-10-09T11:49:58;2.72;;;2.45;;
20073;SDS011;10197;54.282;10.078;2023-10-09T11:52:58;2.47;;;2.28;;
20073;SDS011;10197;54.282;10.078;2023-10-09T11:55:38;2.40;;;2.20;;
20073;SDS011;10197;54.282;10.078;2023-10-09T11:58:06;2.35;;;2.15;;
20073;SDS011;10197;54.282;10.078;2023-10-09T12:00:34;1.97;;;1.83;;
20073;SDS011;10197;54.282;10.078;2023-10-09T12:03:13;2.05;;;1.92;;
20073;SDS011;10197;54.282;10.078;2023-10-09T12:05:40;1.83;;;1.73;;
20073;SDS011;10197;54.282;10.078;2023-10-09T12:08:09;1.70;;;1.60;;
20073;SDS011;10197;54.282;10.078;2023-10-09T12:10:40;1.80;;;1.70;;
20073;SDS011;10197;54.282;10.078;2023-10-09T12:13:07;1.70;;;1.60;;
20073;SDS011;10197;54.282;10.078;2023-10-09T12:15:34;1.90;;;1.75;;
20073;SDS011;10197;54.282;10.078;2023-10-09T12:18:04;2.08;;;1.88;;
20073;SDS011;10197;54.282;10.078;2023-10-09T12:20:35;2.00;;;1.90;;
20073;SDS011;10197;54.282;10.078;2023-10-09T12:23:03;1.88;;;1.60;;
20073;SDS011;10197;54.282;10.078;2023-10-09T12:25:33;2.28;;;2.08;;
20073;SDS011;10197;54.282;10.078;2023-10-09T12:28:01;2.20;;;2.00;;
20073;SDS011;10197;54.282;10.078;2023-10-09T12:30:28;2.15;;;2.03;;
20073;SDS011;10197;54.282;10.078;2023-10-09T12:32:55;2.28;;;2.08;;
20073;SDS011;10197;54.282;10.078;2023-10-09T12:35:23;2.20;;;2.00;;
20073;SDS011;10197;54.282;10.078;2023-10-09T12:37:52;2.00;;;1.70;;
20073;SDS011;10197;54.282;10.078;2023-10-09T12:40:20;1.85;;;1.75;;
20073;SDS011;10197;54.282;10.078;2023-10-09T12:42:54;2.28;;;2.08;;
20073;SDS011;10197;54.282;10.078;2023-10-09T12:45:24;2.10;;;2.00;;
20073;SDS011;10197;54.282;10.078;2023-10-09T12:47:52;3.05;;;2.30;;
20073;SDS011;10197;54.282;10.078;2023-10-09T12:50:21;2.08;;;1.98;;
20073;SDS011;10197;54.282;10.078;2023-10-09T12:52:55;2.45;;;2.15;;
20073;SDS011;10197;54.282;10.078;2023-10-09T12:55:22;2.33;;;2.13;;
20073;SDS011;10197;54.282;10.078;2023-10-09T12:57:57;1.90;;;1.80;;
20073;SDS011;10197;54.282;10.078;2023-10-09T13:00:32;2.50;;;2.30;;
20073;SDS011;10197;54.282;10.078;2023-10-09T13:03:03;2.10;;;1.92;;
20073;SDS011;10197;54.282;10.078;2023-10-09T13:05:45;2.00;;;1.85;;
20073;SDS011;10197;54.282;10.078;2023-10-09T13:08:20;2.08;;;1.98;;
20073;SDS011;10197;54.282;10.078;2023-10-09T13:10:49;1.52;;;1.42;;
20073;SDS011;10197;54.282;10.078;2023-10-09T13:13:27;2.00;;;1.80;;
20073;SDS011;10197;54.282;10.078;2023-10-09T13:16:10;1.88;;;1.77;;
20073;SDS011;10197;54.282;10.078;2023-10-09T13:18:39;2.20;;;2.00;;
20073;SDS011;10197;54.282;10.078;2023-10-09T13:21:06;1.80;;;1.70;;
20073;SDS011;10197;54.282;10.078;2023-10-09T13:23:35;1.80;;;1.70;;
20073;SDS011;10197;54.282;10.078;2023-10-09T13:26:05;2.40;;;2.20;;
20073;SDS011;10197;54.282;10.078;2023-10-09T13:28:44;1.90;;;1.80;;
20073;SDS011;10197;54.282;10.078;2023-10-09T13:31:11;1.92;;;1.83;;
20073;SDS011;10197;54.282;10.078;2023-10-09T13:33:40;3.00;;;2.13;;
20073;SDS011;10197;54.282;10.078;2023-10-09T13:36:07;4.95;;;1.77;;
20073;SDS011;10197;54.282;10.078;2023-10-09T13:38:43;2.30;;;2.10;;
20073;SDS011;10197;54.282;10.078;2023-10-09T13:41:10;1.80;;;1.70;;
20073;SDS011;10197;54.282;10.078;2023-10-09T13:43:39;1.85;;;1.70;;
20073;SDS011;10197;54.282;10.078;2023-10-09T13:46:08;3.17;;;2.35;;
20073;SDS011;10197;54.282;10.078;2023-10-09T13:48:36;2.65;;;2.45;;
20073;SDS011;10197;54.282;10.078;2023-10-09T13:51:06;2.03;;;1.92;;
20073;SDS011;10197;54.282;10.078;2023-10-09T13:53:39;1.80;;;1.70;;
20073;SDS011;10197;54.282;10.078;2023-10-09T13:56:12;1.70;;;1.60;;
20073;SDS011;10197;54.282;10.078;2023-10-09T13:58:43;1.77;;;1.67;;
20073;SDS011;10197;54.282;10.078;2023-10-09T14:01:11;1.70;;;1.60;;
20073;SDS011;10197;54.282;10.078;2023-10-09T14:03:47;2.70;;;1.48;;
20073;SDS011;10197;54.282;10.078;2023-10-09T14:06:18;2.10;;;1.90;;
20073;SDS011;10197;54.282;10.078;2023-10-09T14:08:56;1.65;;;1.55;;
20073;SDS011;10197;54.282;10.078;2023-10-09T14:11:25;2.35;;;1.60;;
20073;SDS011;10197;54.282;10.078;2023-10-09T14:13:53;1.75;;;1.60;;
20073;SDS011;10197;54.282;10.078;2023-10-09T14:16:19;1.88;;;1.63;;
20073;SDS011;10197;54.282;10.078;2023-10-09T14:18:56;1.52;;;1.42;;
20073;SDS011;10197;54.282;10.078;2023-10-09T14:21:25;1.70;;;1.60;;
20073;SDS011;10197;54.282;10.078;2023-10-09T14:23:55;1.48;;;1.38;;
20073;SDS011;10197;54.282;10.078;2023-10-09T14:26:37;1.70;;;1.60;;
20073;SDS011;10197;54.282;10.078;2023-10-09T14:29:04;2.28;;;1.60;;
20073;SDS011;10197;54.282;10.078;2023-10-09T14:31:31;1.60;;;1.50;;
20073;SDS011;10197;54.282;10.078;2023-10-09T14:34:04;1.70;;;1.60;;
20073;SDS011;10197;54.282;10.078;2023-10-09T14:36:34;2.05;;;1.92;;
20073;SDS011;10197;54.282;10.078;2023-10-09T14:39:06;1.75;;;1.63;;
20073;SDS011;10197;54.282;10.078;2023-10-09T14:41:40;2.40;;;2.20;;
20073;SDS011;10197;54.282;10.078;2023-10-09T14:44:08;2.28;;;2.08;;
20073;SDS011;10197;54.282;10.078;2023-10-09T14:46:42;1.90;;;1.70;;
20073;SDS011;10197;54.282;10.078;2023-10-09T14:49:10;3.03;;;2.47;;
20073;SDS011;10197;54.282;10.078;2023-10-09T14:51:39;2.45;;;2.28;;
20073;SDS011;10197;54.282;10.078;2023-10-09T14:54:06;2.15;;;2.05;;
20073;SDS011;10197;54.282;10.078;2023-10-09T14:56:33;2.25;;;2.05;;
20073;SDS011;10197;54.282;10.078;2023-10-09T14:59:03;2.00;;;1.90;;
20073;SDS011;10197;54.282;10.078;2023-10-09T15:01:32;2.10;;;1.90;;
20073;SDS011;10197;54.282;10.078;2023-10-09T15:03:59;8.20;;;6.65;;
20073;SDS011;10197;54.282;10.078;2023-10-09T15:06:26;12.27;;;9.25;;
20073;SDS011;10197;54.282;10.078;2023-10-09T15:08:55;7.00;;;5.93;;
20073;SDS011;10197;54.282;10.078;2023-10-09T15:11:23;5.68;;;4.45;;
20073;SDS011;10197;54.282;10.078;2023-10-09T15:13:50;8.13;;;7.25;;
20073;SDS011;10197;54.282;10.078;2023-10-09T15:16:20;9.18;;;8.38;;
20073;SDS011;10197;54.282;10.078;2023-10-09T15:18:51;4.78;;;4.30;;
20073;SDS011;10197;54.282;10.078;2023-10-09T15:21:20;3.10;;;2.90;;